EDT,Max TemperatureF,Mean TemperatureF,Min TemperatureF,Max Dew PointF,MeanDew PointF,Min DewpointF,Max Humidity, Mean Humidity, Min Humidity, Max Sea Level PressureIn, Mean Sea Level PressureIn, Min Sea Level PressureIn, Max VisibilityMiles, Mean VisibilityMiles, Min VisibilityMiles, Max Wind SpeedMPH, Mean Wind SpeedMPH, Max Gust SpeedMPH,PrecipitationIn, CloudCover, Events, WindDirDegrees
2013-8-1,86,78,71,71,70,66,90,81,61,30.03,29.96,29.91,10,10,2,12,6,,0.16,6,Rain-Thunderstorm,227
2013-8-2,89,78,70,71,66,64,91,67,46,30.04,30.00,29.94,10,10,10,8,3,,0.02,1,,54
2013-8-3,88,80,73,72,69,63,94,71,44,30.05,30.01,29.97,10,10,7,12,3,,0.00,0,,246
2013-8-4,90,82,73,71,65,59,87,61,46,30.04,29.98,29.95,10,10,10,13,5,,0.00,2,,12
2013-8-5,84,78,71,70,64,59,79,63,55,30.11,30.04,29.99,10,10,10,13,7,,0.00,4,,86
2013-8-6,84,76,69,72,69,64,96,85,65,30.09,30.03,29.96,10,7,0,12,6,,2.19,7,Fog-Rain,119
2013-8-7,79,75,71,73,71,68,94,87,76,30.12,30.07,30.02,10,9,3,13,5,,0.16,8,Rain,150
2013-8-8,84,78,73,72,70,66,94,81,60,30.12,30.06,30.03,10,10,7,10,3,,0.00,5,,236
2013-8-9,90,80,73,73,72,69,93,78,58,30.12,30.08,30.03,10,9,2,12,4,20,0.12,2,Rain-Thunderstorm,234
2013-8-10,91,83,75,74,71,68,96,78,49,30.15,30.11,30.06,10,8,0,10,4,20,0.01,3,Fog-Thunderstorm,242
2013-8-11,91,80,71,72,70,68,94,80,52,30.15,30.12,30.08,10,8,0,14,5,16,0.32,2,Rain-Thunderstorm,240
2013-8-12,91,82,72,73,71,69,93,76,52,30.09,30.04,29.98,10,10,10,14,3,28,0.26,1,Thunderstorm,281
2013-8-13,89,80,71,72,70,66,94,75,55,29.97,29.91,29.84,10,10,6,15,6,,0.00,2,,245
2013-8-14,81,76,72,67,63,59,76,66,56,30.07,29.97,29.88,10,10,10,10,5,,0.00,4,,61
2013-8-15,73,68,64,61,57,54,81,66,53,30.14,30.11,30.06,10,10,10,13,9,21,0.00,6,,51
2013-8-16,73,68,62,62,59,58,90,77,61,30.17,30.13,30.09,10,10,5,12,8,18,0.20,6,Rain,58
2013-8-17,69,66,63,63,60,57,94,84,68,30.21,30.17,30.13,10,10,5,17,9,22,0.12,8,Rain,53
2013-8-18,78,71,64,70,65,63,94,86,65,30.24,30.19,30.15,10,9,2,7,3,,0.24,7,Rain,39
2013-8-19,78,72,68,70,67,64,94,86,69,30.23,30.17,30.10,10,8,1,12,4,,0.95,7,Rain,34
2013-8-20,80,74,69,68,67,66,90,80,65,30.23,30.17,30.12,10,10,10,6,4,,0.00,5,Rain,56
2013-8-21,81,76,71,72,70,68,94,86,67,30.27,30.21,30.14,10,9,2,9,3,,0.51,5,Rain-Thunderstorm,340
2013-8-22,89,78,69,71,69,66,100,85,51,30.20,30.14,30.06,10,7,0,29,3,33,0.60,3,Fog-Rain-Thunderstorm,265
2013-8-23,90,79,69,70,68,64,100,81,45,30.09,30.05,29.98,10,7,0,21,3,36,0.02,2,Fog-Rain-Thunderstorm,294
2013-8-24,82,74,66,67,61,58,90,67,45,30.30,30.20,30.06,10,10,10,20,10,28,0.00,1,,53
2013-8-25,81,71,62,59,58,56,84,63,43,30.40,30.33,30.29,10,10,10,12,7,18,0.00,1,,45
2013-8-26,84,72,62,63,59,55,84,64,42,30.34,30.25,30.15,10,10,10,7,3,,0.00,1,,350
2013-8-27,89,77,66,67,63,59,90,65,37,30.17,30.09,30.03,10,10,10,10,4,,0.00,1,,284
2013-8-28,90,80,70,69,67,65,87,65,45,30.04,30.00,29.96,10,10,8,9,3,,0.00,1,,288
2013-8-29,93,82,72,71,69,67,87,66,47,29.98,29.94,29.90,10,9,7,12,4,21,0.00,1,Thunderstorm,332
2013-8-30,84,78,73,72,69,66,89,78,62,30.10,30.02,29.96,10,10,6,12,8,16,0.05,7,Rain-Thunderstorm,88
2013-8-31,89,80,72,72,70,66,93,77,53,30.00,29.95,29.91,10,9,2,9,4,,0.13,3,Rain-Thunderstorm,239